createdAt,value
2022-12-13T00:01:57.043Z,4.25
2022-12-13T00:04:25.130Z,4.72
2022-12-13T00:06:54.069Z,3.90
2022-12-13T00:09:22.212Z,3.95
2022-12-13T00:11:50.108Z,3.90
2022-12-13T00:14:17.980Z,4.13
2022-12-13T00:16:48.326Z,3.75
2022-12-13T00:19:18.148Z,4.03
2022-12-13T00:21:45.962Z,3.85
2022-12-13T00:24:13.681Z,4.18
2022-12-13T00:26:40.828Z,2.67
2022-12-13T00:29:09.525Z,2.10
2022-12-13T00:31:58.732Z,3.67
2022-12-13T00:34:25.247Z,3.15
2022-12-13T00:36:55.003Z,3.17
2022-12-13T00:39:22.368Z,2.88
2022-12-13T00:41:49.426Z,2.65
2022-12-13T00:44:17.037Z,2.70
2022-12-13T00:46:44.052Z,2.58
2022-12-13T00:49:13.223Z,2.65
2022-12-13T00:51:40.397Z,2.72
2022-12-13T00:54:08.056Z,2.67
2022-12-13T00:56:37.700Z,3.13
2022-12-13T00:59:05.201Z,3.08
2022-12-13T01:01:36.521Z,3.22
2022-12-13T01:04:06.465Z,3.20
2022-12-13T01:06:41.125Z,3.13
2022-12-13T01:09:20.072Z,3.15
2022-12-13T01:11:49.167Z,3.08
2022-12-13T01:14:18.538Z,3.45
2022-12-13T01:16:46.231Z,3.03
2022-12-13T01:19:13.483Z,3.10
2022-12-13T01:21:40.583Z,2.90
2022-12-13T01:24:08.375Z,3.03
2022-12-13T01:26:35.403Z,3.00
2022-12-13T01:29:05.257Z,2.60
2022-12-13T01:31:32.785Z,2.78
2022-12-13T01:34:00.128Z,3.05
2022-12-13T01:36:28.488Z,2.95
2022-12-13T01:38:58.005Z,3.00
2022-12-13T01:41:28.550Z,2.70
2022-12-13T01:44:03.849Z,3.00
2022-12-13T01:46:34.300Z,2.90
2022-12-13T01:49:20.308Z,2.70
2022-12-13T01:51:56.244Z,2.47
2022-12-13T01:54:34.067Z,3.25
2022-12-13T01:57:06.619Z,3.17
2022-12-13T01:59:39.473Z,2.55
2022-12-13T02:02:09.946Z,3.13
2022-12-13T02:04:55.338Z,3.00
2022-12-13T02:07:29.834Z,3.20
2022-12-13T02:10:02.342Z,3.47
2022-12-13T02:12:34.318Z,3.03
2022-12-13T02:15:11.597Z,2.92
2022-12-13T02:18:12.458Z,3.47
2022-12-13T02:21:21.058Z,3.53
2022-12-13T02:24:26.940Z,3.00
2022-12-13T02:27:16.019Z,2.58
2022-12-13T02:30:12.847Z,3.53
2022-12-13T02:33:21.839Z,3.50
2022-12-13T02:36:36.345Z,3.50
2022-12-13T02:39:34.198Z,3.10
2022-12-13T02:42:21.571Z,3.35
2022-12-13T02:45:08.566Z,3.67
2022-12-13T02:47:39.461Z,3.65
2022-12-13T02:50:09.392Z,3.80
2022-12-13T02:52:39.283Z,3.13
2022-12-13T02:55:09.560Z,3.60
2022-12-13T02:57:43.324Z,4.13
2022-12-13T03:00:25.146Z,3.30
2022-12-13T03:03:21.042Z,3.30
2022-12-13T03:06:34.005Z,3.00
2022-12-13T03:09:35.844Z,2.97
2022-12-13T03:12:43.983Z,3.40
2022-12-13T03:15:29.431Z,3.65
2022-12-13T03:18:06.517Z,3.80
2022-12-13T03:20:33.981Z,3.20
2022-12-13T03:23:03.390Z,3.40
2022-12-13T03:25:32.906Z,3.80
2022-12-13T03:28:02.868Z,3.35
2022-12-13T03:30:34.498Z,3.70
2022-12-13T03:33:03.887Z,3.70
2022-12-13T03:35:35.085Z,4.47
2022-12-13T03:38:21.431Z,3.83
2022-12-13T03:41:02.727Z,3.55
2022-12-13T03:43:30.995Z,3.60
2022-12-13T03:45:58.055Z,3.40
2022-12-13T03:48:25.501Z,3.30
2022-12-13T03:50:54.436Z,3.50
2022-12-13T03:53:33.521Z,3.33
2022-12-13T03:56:06.012Z,3.13
2022-12-13T03:58:37.757Z,3.22
2022-12-13T04:01:15.343Z,2.80
2022-12-13T04:03:47.062Z,2.80
2022-12-13T04:06:22.808Z,2.85
2022-12-13T04:08:52.410Z,2.55
2022-12-13T04:11:43.038Z,2.90
2022-12-13T04:14:12.147Z,3.00
2022-12-13T04:16:39.514Z,2.67
2022-12-13T04:19:07.538Z,2.70
2022-12-13T04:21:35.087Z,2.63
2022-12-13T04:24:03.045Z,2.53
2022-12-13T04:26:30.340Z,2.30
2022-12-13T04:28:57.628Z,2.20
2022-12-13T04:31:24.914Z,2.20
2022-12-13T04:33:52.291Z,2.85
2022-12-13T04:36:31.474Z,2.53
2022-12-13T04:39:03.588Z,2.50
2022-12-13T04:41:51.943Z,2.80
2022-12-13T04:44:28.672Z,2.30
2022-12-13T04:47:00.754Z,2.55
2022-12-13T04:49:30.950Z,2.65
2022-12-13T04:52:01.396Z,2.63
2022-12-13T04:54:36.000Z,2.38
2022-12-13T04:57:11.201Z,2.85
2022-12-13T04:59:39.177Z,2.65
2022-12-13T05:02:08.032Z,2.50
2022-12-13T05:04:35.848Z,2.78
2022-12-13T05:07:04.121Z,2.80
2022-12-13T05:09:31.671Z,2.53
2022-12-13T05:12:01.050Z,2.60
2022-12-13T05:14:33.033Z,2.60
2022-12-13T05:17:02.397Z,2.67
2022-12-13T05:19:31.551Z,2.60
2022-12-13T05:22:01.315Z,2.42
2022-12-13T05:24:31.388Z,2.50
2022-12-13T05:26:59.731Z,2.40
2022-12-13T05:29:27.833Z,2.00
2022-12-13T05:31:55.451Z,2.40
2022-12-13T05:34:23.047Z,2.15
2022-12-13T05:36:49.985Z,2.38
2022-12-13T05:39:27.919Z,1.98
2022-12-13T05:42:01.776Z,2.15
2022-12-13T05:44:33.795Z,2.45
2022-12-13T05:47:01.976Z,2.25
2022-12-13T05:49:30.221Z,1.95
2022-12-13T05:51:57.434Z,2.25
2022-12-13T05:54:24.753Z,2.30
2022-12-13T05:56:52.000Z,2.10
2022-12-13T05:59:19.492Z,2.20
2022-12-13T06:01:46.466Z,2.40
2022-12-13T06:04:22.564Z,2.38
2022-12-13T06:06:52.497Z,2.20
2022-12-13T06:09:21.015Z,2.17
2022-12-13T06:11:49.731Z,2.20
2022-12-13T06:14:22.612Z,2.00
2022-12-13T06:16:52.705Z,2.03
2022-12-13T06:19:24.098Z,2.17
2022-12-13T06:21:53.845Z,1.90
2022-12-13T06:24:23.719Z,2.10
2022-12-13T06:26:51.829Z,1.80
2022-12-13T06:29:24.088Z,2.40
2022-12-13T06:34:36.491Z,2.15
2022-12-13T06:37:07.736Z,2.28
2022-12-13T06:39:35.341Z,2.30
2022-12-13T06:42:08.950Z,2.92
2022-12-13T06:44:36.532Z,2.70
2022-12-13T06:47:10.707Z,2.42
2022-12-13T06:49:43.351Z,2.70
2022-12-13T06:52:13.370Z,2.97
2022-12-13T06:54:42.780Z,3.08
2022-12-13T06:57:12.113Z,3.15
2022-12-13T06:59:40.185Z,2.95
2022-12-13T07:02:15.309Z,2.88
2022-12-13T07:04:54.025Z,2.80
2022-12-13T07:07:21.928Z,2.88
2022-12-13T07:09:49.239Z,2.60
2022-12-13T07:12:16.260Z,2.90
2022-12-13T07:14:43.667Z,2.63
2022-12-13T07:17:10.828Z,2.80
2022-12-13T07:19:38.733Z,2.65
2022-12-13T07:22:06.362Z,2.80
2022-12-13T07:24:37.086Z,2.33
2022-12-13T07:27:04.980Z,2.47
2022-12-13T07:29:32.384Z,2.45
2022-12-13T07:32:01.794Z,2.38
2022-12-13T07:34:30.541Z,2.20
2022-12-13T07:36:57.999Z,2.40
2022-12-13T07:39:26.231Z,2.00
2022-12-13T07:41:56.013Z,1.88
2022-12-13T07:44:24.848Z,1.92
2022-12-13T07:46:52.146Z,2.08
2022-12-13T07:49:20.027Z,2.05
2022-12-13T07:51:47.787Z,2.00
2022-12-13T07:54:15.319Z,1.70
2022-12-13T07:56:42.351Z,2.28
2022-12-13T07:59:10.783Z,2.30
2022-12-13T08:01:38.036Z,1.80
2022-12-13T08:04:06.718Z,2.22
2022-12-13T08:06:38.900Z,2.22
2022-12-13T08:11:34.465Z,2.22
2022-12-13T08:14:03.273Z,2.17
2022-12-13T08:16:30.729Z,2.05
2022-12-13T08:19:02.425Z,2.65
2022-12-13T08:22:01.796Z,2.80
2022-12-13T08:24:31.262Z,2.50
2022-12-13T08:27:03.002Z,2.45
2022-12-13T08:32:11.460Z,2.73
2022-12-13T08:34:41.346Z,2.38
2022-12-13T08:37:08.541Z,2.88
2022-12-13T08:39:38.262Z,2.97
2022-12-13T08:42:16.782Z,2.22
2022-12-13T08:44:51.485Z,2.65
2022-12-13T08:47:26.868Z,2.55
2022-12-13T08:50:04.046Z,2.63
2022-12-13T08:52:40.765Z,2.45
2022-12-13T08:55:13.099Z,2.80
2022-12-13T08:57:42.487Z,2.85
2022-12-13T09:00:15.202Z,3.28
2022-12-13T09:02:43.453Z,3.15
2022-12-13T09:05:33.104Z,2.80
2022-12-13T09:08:24.842Z,2.90
2022-12-13T09:11:00.388Z,3.17
2022-12-13T09:13:34.473Z,2.80
2022-12-13T09:16:23.071Z,3.28
2022-12-13T09:18:55.857Z,2.72
2022-12-13T09:21:31.603Z,2.60
2022-12-13T09:24:01.409Z,2.15
2022-12-13T09:26:29.899Z,3.08
2022-12-13T09:29:10.327Z,3.27
2022-12-13T09:31:40.492Z,3.22
2022-12-13T09:34:09.079Z,2.83
2022-12-13T09:36:36.616Z,2.65
2022-12-13T09:39:04.990Z,3.05
2022-12-13T09:41:41.838Z,2.83
2022-12-13T09:44:44.054Z,2.67
2022-12-13T09:47:27.275Z,2.92
2022-12-13T09:50:15.993Z,2.75
2022-12-13T09:52:46.063Z,2.72
2022-12-13T09:55:30.820Z,2.80
2022-12-13T09:58:14.264Z,2.35
2022-12-13T10:00:42.086Z,2.60
2022-12-13T10:03:15.807Z,2.95
2022-12-13T10:06:23.223Z,2.60
2022-12-13T10:08:58.884Z,2.80
2022-12-13T10:11:31.763Z,2.75
2022-12-13T10:14:47.792Z,2.58
2022-12-13T10:17:22.405Z,2.30
2022-12-13T10:19:53.136Z,2.78
2022-12-13T10:22:24.966Z,3.08
2022-12-13T10:24:56.690Z,1.98
2022-12-13T10:27:45.868Z,2.90
2022-12-13T10:30:28.990Z,3.15
2022-12-13T10:33:03.658Z,3.00
2022-12-13T10:35:36.289Z,2.67
2022-12-13T10:38:31.918Z,2.70
2022-12-13T10:43:27.728Z,2.97
2022-12-13T10:46:01.085Z,2.90
2022-12-13T10:48:48.998Z,3.30
2022-12-13T10:51:22.887Z,3.20
2022-12-13T10:54:00.759Z,3.00
2022-12-13T10:56:47.629Z,2.95
2022-12-13T10:59:34.699Z,2.97
2022-12-13T11:02:34.818Z,3.08
2022-12-13T11:05:29.688Z,2.67
2022-12-13T11:08:26.469Z,2.55
2022-12-13T11:11:05.873Z,2.25
2022-12-13T11:13:46.120Z,2.72
2022-12-13T11:16:33.901Z,2.90
2022-12-13T11:20:08.346Z,2.60
2022-12-13T11:34:48.435Z,3.28
2022-12-13T11:41:59.081Z,3.17
2022-12-13T11:45:22.505Z,3.45
2022-12-13T11:48:09.312Z,3.85
2022-12-13T11:50:48.632Z,3.55
2022-12-13T11:53:23.120Z,3.30
2022-12-13T11:56:19.826Z,3.38
2022-12-13T11:59:40.328Z,3.05
2022-12-13T12:02:33.661Z,3.22
2022-12-13T12:05:24.076Z,3.30
2022-12-13T12:08:32.489Z,3.45
2022-12-13T12:11:09.378Z,3.30
2022-12-13T12:13:57.114Z,3.22
2022-12-13T12:16:43.273Z,3.47
2022-12-13T12:19:21.812Z,3.40
2022-12-13T12:22:19.991Z,3.58
2022-12-13T12:25:37.566Z,3.53
2022-12-13T12:29:12.233Z,3.37
2022-12-13T12:32:24.230Z,3.28
2022-12-13T12:35:19.616Z,3.38
2022-12-13T12:38:27.479Z,3.13
2022-12-13T12:41:47.360Z,2.88
2022-12-13T12:44:52.336Z,3.17
2022-12-13T12:48:46.259Z,2.90
2022-12-13T12:51:02.545Z,3.25
2022-12-13T12:53:51.007Z,2.85
2022-12-13T12:56:57.635Z,3.00
2022-12-13T12:59:48.177Z,2.85
2022-12-13T13:02:51.253Z,2.47
2022-12-13T13:05:31.700Z,3.10
2022-12-13T13:08:19.964Z,2.78
2022-12-13T13:10:50.207Z,3.25
2022-12-13T13:13:46.669Z,3.10
2022-12-13T13:16:34.213Z,2.85
2022-12-13T13:19:26.200Z,2.72
2022-12-13T13:22:01.423Z,2.85
2022-12-13T13:24:34.679Z,2.95
2022-12-13T13:27:11.973Z,2.80
2022-12-13T13:29:43.923Z,2.97
2022-12-13T13:32:11.597Z,3.13
2022-12-13T13:34:43.476Z,3.13
2022-12-13T13:37:25.690Z,3.20
2022-12-13T13:39:55.665Z,2.85
2022-12-13T13:42:33.545Z,3.28
2022-12-13T13:45:26.995Z,3.60
2022-12-13T13:48:26.862Z,3.50
2022-12-13T13:51:32.977Z,3.50
2022-12-13T13:54:25.011Z,3.63
2022-12-13T13:58:07.171Z,3.63
2022-12-13T14:00:40.620Z,3.55
2022-12-13T14:03:34.145Z,3.57
2022-12-13T14:06:29.663Z,4.20
2022-12-13T14:09:32.842Z,4.80
2022-12-13T14:13:02.354Z,5.30
2022-12-13T14:16:20.836Z,6.72
2022-12-13T14:19:45.889Z,7.38
2022-12-13T14:22:24.383Z,7.72
2022-12-13T14:25:16.417Z,8.50
2022-12-13T14:28:15.047Z,8.18
2022-12-13T14:30:47.930Z,7.90
2022-12-13T14:33:26.880Z,8.50
2022-12-13T14:35:58.997Z,8.48
2022-12-13T14:38:32.039Z,8.18
2022-12-13T14:41:03.010Z,8.88
2022-12-13T14:43:33.768Z,8.98
2022-12-13T14:46:08.045Z,9.20
2022-12-13T14:48:44.280Z,9.40
2022-12-13T14:51:35.789Z,9.82
2022-12-13T14:54:06.884Z,9.75
2022-12-13T14:56:34.820Z,9.98
2022-12-13T14:59:12.880Z,9.40
2022-12-13T15:01:41.016Z,9.98
2022-12-13T15:04:31.725Z,8.98
2022-12-13T15:07:11.514Z,10.70
2022-12-13T15:09:43.683Z,10.70
2022-12-13T15:12:25.215Z,9.73
2022-12-13T15:15:34.326Z,9.80
2022-12-13T15:18:20.480Z,9.30
2022-12-13T15:20:57.834Z,9.15
2022-12-13T15:23:48.590Z,8.77
2022-12-13T15:26:28.337Z,8.47
2022-12-13T15:29:01.516Z,8.55
2022-12-13T15:31:39.016Z,8.75
2022-12-13T15:34:28.275Z,8.65
2022-12-13T15:37:28.536Z,7.85
2022-12-13T15:40:08.540Z,8.45
2022-12-13T15:42:43.582Z,8.90
2022-12-13T15:45:25.334Z,9.27
2022-12-13T15:47:54.779Z,8.70
2022-12-13T15:50:45.494Z,8.70
2022-12-13T15:53:27.955Z,8.52
2022-12-13T15:55:55.599Z,7.72
2022-12-13T15:58:33.385Z,6.97
2022-12-13T16:01:05.315Z,6.72
2022-12-13T16:03:46.678Z,5.88
2022-12-13T16:06:23.393Z,6.30
2022-12-13T16:08:53.333Z,5.97
2022-12-13T16:11:31.348Z,6.05
2022-12-13T16:14:32.957Z,6.25
2022-12-13T16:17:34.808Z,6.72
2022-12-13T16:20:09.319Z,6.78
2022-12-13T16:22:37.060Z,6.03
2022-12-13T16:25:04.547Z,8.18
2022-12-13T16:27:32.091Z,7.75
2022-12-13T16:29:59.375Z,7.90
2022-12-13T16:32:27.053Z,8.57
2022-12-13T16:34:54.157Z,8.32
2022-12-13T16:37:27.400Z,7.80
2022-12-13T16:39:55.820Z,9.15
2022-12-13T16:42:26.906Z,9.65
2022-12-13T16:45:17.835Z,9.75
2022-12-13T16:47:49.198Z,10.60
2022-12-13T16:50:20.705Z,10.00
2022-12-13T16:52:49.222Z,10.70
2022-12-13T16:55:16.543Z,11.25
2022-12-13T16:58:00.531Z,11.15
2022-12-13T17:00:29.505Z,10.48
2022-12-13T17:02:59.329Z,10.00
2022-12-13T17:05:30.219Z,10.45
2022-12-13T17:07:57.593Z,9.43
2022-12-13T17:10:24.811Z,8.88
2022-12-13T17:12:54.011Z,8.75
2022-12-13T17:15:21.133Z,8.95
2022-12-13T17:17:48.566Z,7.82
2022-12-13T17:20:18.002Z,7.88
2022-12-13T17:22:46.683Z,7.13
2022-12-13T17:25:14.661Z,7.20
2022-12-13T17:27:42.573Z,6.65
2022-12-13T17:30:15.828Z,6.45
2022-12-13T17:32:44.376Z,7.03
2022-12-13T17:35:17.681Z,6.28
2022-12-13T17:37:46.196Z,6.55
2022-12-13T17:40:13.132Z,7.00
2022-12-13T17:42:40.408Z,6.28
2022-12-13T17:45:08.047Z,7.15
2022-12-13T17:47:35.440Z,7.25
2022-12-13T17:50:02.570Z,7.35
2022-12-13T17:52:30.460Z,6.75
2022-12-13T17:54:57.698Z,7.10
2022-12-13T17:57:24.986Z,7.38
2022-12-13T17:59:52.124Z,7.28
2022-12-13T18:02:22.916Z,7.38
2022-12-13T18:04:50.435Z,7.45
2022-12-13T18:07:18.851Z,7.65
2022-12-13T18:09:46.008Z,8.48
2022-12-13T18:12:13.716Z,8.27
2022-12-13T18:14:41.232Z,9.68
2022-12-13T18:17:08.489Z,9.77
2022-12-13T18:19:35.451Z,9.20
2022-12-13T18:22:02.881Z,9.10
2022-12-13T18:24:30.099Z,9.88
2022-12-13T18:26:57.362Z,9.85
2022-12-13T18:29:24.376Z,9.93
2022-12-13T18:31:54.823Z,10.02
2022-12-13T18:34:21.958Z,9.65
2022-12-13T18:36:49.476Z,11.93
2022-12-13T18:39:17.203Z,11.93
2022-12-13T18:41:44.542Z,12.27
2022-12-13T18:44:13.731Z,13.30
2022-12-13T18:46:45.760Z,13.27
2022-12-13T18:49:13.245Z,13.15
2022-12-13T18:51:40.580Z,12.70
2022-12-13T18:54:07.768Z,12.95
2022-12-13T18:56:35.059Z,12.15
2022-12-13T18:59:02.306Z,12.82
2022-12-13T19:01:30.534Z,12.52
2022-12-13T19:03:57.926Z,11.30
2022-12-13T19:06:27.989Z,12.18
2022-12-13T19:08:58.322Z,13.27
2022-12-13T19:11:27.940Z,12.18
2022-12-13T19:13:55.660Z,11.77
2022-12-13T19:16:24.486Z,12.55
2022-12-13T19:18:51.531Z,12.32
2022-12-13T19:21:21.824Z,12.00
2022-12-13T19:23:56.409Z,12.85
2022-12-13T19:26:28.040Z,12.57
2022-12-13T19:28:57.659Z,11.13
2022-12-13T19:31:31.036Z,11.55
2022-12-13T19:34:03.607Z,11.90
2022-12-13T19:36:32.076Z,12.35
2022-12-13T19:38:59.641Z,12.95
2022-12-13T19:41:27.485Z,11.98
2022-12-13T19:43:54.507Z,12.90
2022-12-13T19:46:22.164Z,13.15
2022-12-13T19:48:49.602Z,13.35
2022-12-13T19:51:17.778Z,13.82
2022-12-13T19:53:44.874Z,14.45
2022-12-13T19:56:17.651Z,15.13
2022-12-13T19:58:46.989Z,13.90
2022-12-13T20:01:15.810Z,14.70
2022-12-13T20:03:45.832Z,13.65
2022-12-13T20:06:17.947Z,14.57
2022-12-13T20:08:46.366Z,13.73
2022-12-13T20:11:19.392Z,13.82
2022-12-13T20:13:49.162Z,12.95
2022-12-13T20:16:19.528Z,12.77
2022-12-13T20:18:47.825Z,12.82
2022-12-13T20:21:15.288Z,12.90
2022-12-13T20:23:49.440Z,12.27
2022-12-13T20:26:23.421Z,12.55
2022-12-13T20:28:51.127Z,13.20
2022-12-13T20:31:23.052Z,11.23
2022-12-13T20:33:59.514Z,12.65
2022-12-13T20:36:29.079Z,13.32
2022-12-13T20:39:02.328Z,12.55
2022-12-13T20:41:33.195Z,12.05
2022-12-13T20:44:03.151Z,12.48
2022-12-13T20:46:31.059Z,13.55
2022-12-13T20:49:02.378Z,13.15
2022-12-13T20:51:31.957Z,13.52
2022-12-13T20:54:00.353Z,13.75
2022-12-13T20:56:35.515Z,14.20
2022-12-13T20:59:05.994Z,14.60
2022-12-13T21:01:38.423Z,14.43
2022-12-13T21:04:07.561Z,14.88
2022-12-13T21:06:37.422Z,15.43
2022-12-13T21:09:05.631Z,15.20
2022-12-13T21:11:59.083Z,16.23
2022-12-13T21:14:29.041Z,15.70
2022-12-13T21:16:59.789Z,16.58
2022-12-13T21:19:37.558Z,15.55
2022-12-13T21:22:07.743Z,15.90
2022-12-13T21:24:34.739Z,16.90
2022-12-13T21:27:02.226Z,17.25
2022-12-13T21:29:29.179Z,18.52
2022-12-13T21:31:56.952Z,18.60
2022-12-13T21:34:24.100Z,17.48
2022-12-13T21:36:52.629Z,17.73
2022-12-13T21:39:27.985Z,18.30
2022-12-13T21:41:56.723Z,17.83
2022-12-13T21:44:24.139Z,18.38
2022-12-13T21:47:11.823Z,17.40
2022-12-13T21:49:39.288Z,17.20
2022-12-13T21:52:06.742Z,17.60
2022-12-13T21:54:33.769Z,17.23
2022-12-13T21:57:20.011Z,16.58
2022-12-13T21:59:47.028Z,17.23
2022-12-13T22:02:19.995Z,17.00
2022-12-13T22:04:57.410Z,16.90
2022-12-13T22:07:28.508Z,16.92
2022-12-13T22:09:57.093Z,17.77
2022-12-13T22:12:37.683Z,17.73
2022-12-13T22:15:12.792Z,16.33
2022-12-13T22:17:41.877Z,17.52
2022-12-13T22:20:13.717Z,16.75
2022-12-13T22:22:44.065Z,16.52
2022-12-13T22:25:12.077Z,17.15
2022-12-13T22:27:39.375Z,17.38
2022-12-13T22:30:07.559Z,18.92
2022-12-13T22:32:34.843Z,19.38
2022-12-13T22:35:02.264Z,20.25
2022-12-13T22:37:29.634Z,21.63
2022-12-13T22:39:56.915Z,22.80
2022-12-13T22:42:24.146Z,23.33
2022-12-13T22:44:51.219Z,23.33
2022-12-13T22:47:19.440Z,23.23
2022-12-13T22:49:48.783Z,22.45
2022-12-13T22:52:17.311Z,22.80
2022-12-13T22:54:44.471Z,23.38
2022-12-13T22:57:11.748Z,22.05
2022-12-13T22:59:39.142Z,21.08
2022-12-13T23:02:06.614Z,20.88
2022-12-13T23:04:33.772Z,21.92
2022-12-13T23:07:01.866Z,22.30
2022-12-13T23:09:28.925Z,21.95
2022-12-13T23:12:15.111Z,22.52
2022-12-13T23:14:42.173Z,19.92
2022-12-13T23:17:09.628Z,21.00
2022-12-13T23:19:51.493Z,20.38
2022-12-13T23:22:25.568Z,19.55
2022-12-13T23:24:53.547Z,20.17
2022-12-13T23:27:24.664Z,19.73
2022-12-13T23:29:52.031Z,21.13
2022-12-13T23:32:19.335Z,20.02
2022-12-13T23:34:46.465Z,20.80
2022-12-13T23:37:13.742Z,19.83
2022-12-13T23:39:41.466Z,20.05
2022-12-13T23:42:08.938Z,19.60
2022-12-13T23:44:36.378Z,20.50
2022-12-13T23:47:03.733Z,19.92
2022-12-13T23:49:30.824Z,19.95
2022-12-13T23:51:58.127Z,20.02
2022-12-13T23:54:27.165Z,20.58
2022-12-13T23:56:54.504Z,20.35
2022-12-13T23:59:21.500Z,18.95
